East Jordan, Michigan
Current Conditions -  °F | °C
As of 12:55 PM on Monday 24 Nov 2014 (Local Time) from KCVX Reporting Station
Haze Haze  
Wind Chill:   Ceiling: 300
Heat Index:   Visibility: 1.5mi
Dew Point:   Wind: 8mph
Humidity: 100%   Direction: 260°W
Pressure: 29.03"   Gusts: NA
Location:  45.16°N, 85.12°W
Report Text: KCVX 241755Z AUTO 26007KT 1 1/2SM BR OVC003 06/06 A2903 RMK AO2 T00610061 10073 20060
Loading
Personal Weather Stations






























Interactive Weather Map New forecast layout! Learn more

10-Day Weather Forecast

Advertisements
Track Severe Weather on mobile